Valle Toledo, Valles Caldera, New Mexico Weather observations

Data are for 10 minute period ending at time listed.
 Day   Time   Solar   Ave.   Ave.  Ave.  Vector  Max.   Baro.   Total    
  of    of     Rad.   Air    Rel.  Wind   Wind   Wind  Press.  Precip.   
Year   Day            Temp.  Hum.  Speed  Dir.   Gust                    
2015   (MST)  Kw/m2    F      %     mph   deg.    mph    mb.     in.     
-------------------------------------------------------------------------
 144    2:30   0.00   30.5    82    3.5    36     4.2   727.7    0.00 
 144    2:40   0.00   30.6    82    3.1    29     4.2   727.6    0.00 
 144    2:50   0.00   30.3    82    2.3    29     4.8   727.5    0.00 
 144    3:00   0.00   30.1    83    3.5    62     5.4   727.5    0.00 
 144    3:10   0.00   30.1    82    4.0   335     7.2   727.5    0.00 
 144    3:20   0.00   29.6    84    3.9    35     4.8   727.4    0.00 
 144    3:30   0.00   30.2    85    2.7    38     4.8   727.4    0.00 
 144    3:40   0.00   30.4    84    3.0    28     4.2   727.4    0.00 
 144    3:50   0.00   30.7    85    3.9    37     4.8   727.4    0.00 
 144    4:00   0.00   31.2    84    3.0    27     4.8   727.4    0.00 
 144    4:10   0.00   31.4    85    3.2    29     4.8   727.4    0.00 
 144    4:20   0.00   32.4    84    3.9    18     6.0   727.4    0.00 
 144    4:30   0.00   32.8    82    3.5    24     5.4   727.4    0.00 
 144    4:40   0.00   33.0    83    4.5     3     6.6   727.4    0.00 
 144    4:50   0.00   33.6    82    3.4    38     5.4   727.3    0.00 
 144    5:00   0.00   34.6    80    3.2   286     6.6   727.4    0.00 
 144    5:10   0.01   35.0    78    2.2   330     6.0   727.3    0.00 
 144    5:20   0.03   34.9    79    2.5    34     3.6   727.3    0.00 
 144    5:30   0.03   35.1    79    2.3   316     6.6   727.2    0.00 
 144    5:40   0.03   35.1    79    2.7   318     4.8   727.3    0.00 
 144    5:50   0.03   35.0    79    3.1   328     5.4   727.3    0.00 
 144    6:00   0.04   35.1    80    2.7    20     4.8   727.3    0.00 
 144    6:10   0.08   35.7    79    2.5    32     5.4   727.4    0.00 
 144    6:20   0.05   36.2    78    2.8   318     4.8   727.4    0.00 
 144    6:30   0.07   36.2    77    3.7   325     6.6   727.4    0.00 
 144    6:40   0.09   36.5    78    3.4   292     5.4   727.4    0.00 
 144    6:50   0.07   36.3    78    3.8   305     6.6   727.4    0.00 
 144    7:00   0.05   36.4    78    3.3   325     6.0   727.4    0.00 
 144    7:10   0.04   36.4    78    3.6   312     6.6   727.4    0.00 
 144    7:20   0.03   36.3    78    3.1   318     5.4   727.5    0.00 
 144    7:30   0.06   36.5    79    3.5   318     5.4   727.5    0.00 
 144    7:40   0.09   36.9    78    3.9   315     6.0   727.5    0.00 
 144    7:50   0.09   37.1    78    3.6   281     6.6   727.5    0.00 
 144    8:00   0.06   37.2    78    3.1   333     6.0   727.6    0.00 
 144    8:10   0.07   37.1    78    2.4   161     7.8   727.6    0.00 
 144    8:20   0.06   37.3    77    3.0   185     6.0   727.6    0.00 
 144    8:30   0.10   37.8    77    2.1   328     3.6   727.6    0.00 
 144    8:40   0.07   37.9    76    2.7   101     5.4   727.6    0.00 
 144    8:50   0.14   38.1    77    3.9   223     9.0   727.7    0.00 
 144    9:00   0.10   38.6    76    4.5   247     8.4   727.7    0.00 
 144    9:10   0.11   38.7    74    4.6   262     8.4   727.7    0.00 
 144    9:20   0.16   39.3    73    4.4   271     7.2   727.7    0.00 
 144    9:30   0.10   39.2    73    4.5   239     9.0   727.6    0.00 
 144    9:40   0.11   39.2    74    4.8   252    13.1   727.6    0.00 
 144    9:50   0.15   38.4    79    6.7   280    11.9   727.7    0.00 
 144   10:00   0.23   37.7    84    4.0   277     9.0   727.8    0.00 
 144   10:10   0.20   37.6    84    3.8   239     9.6   727.7    0.00 
 144   10:20   0.47   38.7    82    5.9   210     9.0   727.6    0.00 
 144   10:30   0.30   39.5    79    6.0   244    10.8   727.7    0.00 
 144   10:40   0.20   39.4    79    6.0   258    10.2   727.8    0.00 
 144   10:50   0.25   38.7    80    9.0   279    14.9   728.0    0.00 
 144   11:00   0.23   38.3    81    8.0   270    17.3   728.1    0.00 
 144   11:10   0.30   38.2    82    7.4   271    13.1   728.1    0.00 
 144   11:20   0.27   38.3    83    7.5   290    17.9   728.0    0.01 
 144   11:30   0.20   38.7    81    5.9   258    10.8   728.0    0.00 
 144   11:40   0.23   39.0    79    6.5   265    11.9   728.0    0.00 
 144   11:50   0.22   39.8    76    6.7   278    11.9   728.1    0.00 
 144   12:00   0.33   39.7    76    8.1   288    16.1   728.2    0.00 
 144   12:10   0.71   41.3    76    5.7   271    11.9   728.2    0.00 
 144   12:20   0.51   42.2    70    6.9   263    13.1   728.1    0.00 
 144   12:30   0.45   41.6    71    7.1   258    11.9   728.0    0.00 
 144   12:40   0.48   42.2    72    6.4   258    13.7   728.0    0.00 
 144   12:50   0.50   42.3    71    7.3   257    12.5   727.9    0.00 
 144   13:00   0.62   42.5    70    8.4   281    14.9   727.8    0.00 
 144   13:10   0.51   43.3    68    7.0   268    11.3   727.8    0.00 
 144   13:20   0.47   42.5    68    6.8   259    14.3   727.8    0.00 
 144   13:30   0.51   43.7    66    7.4   248    13.1   727.6    0.00 
 144   13:40   0.97   44.7    65    7.8   258    13.7   727.5    0.00 
 144   13:50   0.99   45.7    64    8.4   252    15.5   727.4    0.00 
 144   14:00   1.04   46.3    63    8.4   262    17.9   727.4    0.00 
 144   14:10   0.69   47.1    59    8.2   271    15.5   727.4    0.00 
 144   14:20   0.81   46.9    60    9.6   279    17.3   727.4    0.00 
 144   14:30   0.57   46.1    61    8.4   284    14.3   727.4    0.00 
 144   14:40   0.32   44.1    64    8.5   272    15.5   727.5    0.00 
 144   14:50   0.69   46.0    62    8.1   284    15.5   727.4    0.00 
 144   15:00   0.46   45.8    58    7.2   262    13.1   727.3    0.00 
 144   15:10   0.31   46.0    59    7.0   256    15.5   727.2    0.00 
 144   15:20   0.29   45.3    64    6.7   283    13.7   727.2    0.00 
 144   15:30   0.30   44.9    65    6.5   272    13.1   727.2    0.00 
 144   15:40   0.34   44.6    63    6.3   260    12.5   727.2    0.00 
 144   15:50   0.16   44.5    64    8.1   262    16.7   727.2    0.00 
 144   16:00   0.15   41.0    73   10.0   294    23.9   727.5    0.00 
 144   16:10   0.57   42.1    76    5.3   299     9.0   727.2    0.00 
 144   16:20   0.63   45.1    67    5.9   282    10.2   727.1    0.00 
 144   16:30   0.59   46.7    64    8.2   252    14.9   726.8    0.00 
 144   16:40   0.53   47.1    61    8.0   260    15.5   726.8    0.00 
 144   16:50   0.37   47.1    61    7.8   277    15.5   727.0    0.00 
 144   17:00   0.41   47.3    59    6.9   260    11.9   726.8    0.00 
 144   17:10   0.29   46.5    62    7.3   270    15.5   726.8    0.00 
 144   17:20   0.36   47.3    59    8.0   264    14.9   726.8    0.00 
 144   17:30   0.28   46.5    60    9.4   257    17.3   726.6    0.00 
 144   17:40   0.29   47.1    58    6.9   264    11.9   726.6    0.00 
 144   17:50   0.14   46.3    61    6.1   255    10.2   726.7    0.00 
 144   18:00   0.18   46.1    62    6.3   259    14.9   726.8    0.00 
 144   18:10   0.12   45.1    64    4.6   251     7.8   726.9    0.00 
 144   18:20   0.14   45.0    63    6.0   285    13.1   727.0    0.00 
 144   18:30   0.03   44.7    60    6.4   292    10.2   726.9    0.00 
 144   18:40   0.02   43.4    63    4.4   295     7.2   727.0    0.00 
 144   18:50   0.01   42.5    66    3.4   330     5.4   727.0    0.00 
 144   19:00   0.01   41.6    66    5.2   336    10.2   727.0    0.00 
 144   19:10   0.01   41.1    66    3.3   318     6.6   727.1    0.00 
 144   19:20   0.00   40.5    68    3.2   314     6.0   727.1    0.00 
 144   19:30   0.00   39.8    69    3.7   335     7.2   727.3    0.00 
 144   19:40   0.00   39.3    70    3.9   341     6.6   727.3    0.00 
 144   19:50   0.00   39.1    71    3.7   330     7.2   727.2    0.00 
 144   20:00   0.00   38.6    72    3.2   348     4.2   727.3    0.00 
 144   20:10   0.00   38.0    73    3.1   356     4.8   727.4    0.00 
 144   20:20   0.00   37.2    75    2.4    54     3.0   727.5    0.00 
 144   20:30   0.00   36.5    77    2.8    51     4.2   727.5    0.00 
 144   20:40   0.00   36.0    78    3.5    47     4.2   727.7    0.00 
 144   20:50   0.00   35.6    79    4.1    38     4.8   727.8    0.00 
 144   21:00   0.00   35.6    80    4.1    38     4.8   727.9    0.00 
 144   21:10   0.00   35.4    80    3.2    27     4.2   728.0    0.00 
 144   21:20   0.00   34.9    81    2.5    56     4.2   728.1    0.00 
 144   21:30   0.00   34.6    82    2.9    58     4.2   728.1    0.00 
 144   21:40   0.00   34.6    82    3.1    47     4.2   728.1    0.00 
 144   21:50   0.00   34.3    83    3.6    45     4.2   728.1    0.00 
 144   22:00   0.00   34.1    84    3.2    53     4.2   728.2    0.00 
 144   22:10   0.00   34.3    85    2.9    52     3.6   728.1    0.00 
 144   22:20   0.00   34.4    85    2.7    46     3.6   728.1    0.00 
 144   22:30   0.00   34.1    85    3.0    36     3.6   728.1    0.00 
 144   22:40   0.00   33.7    86    2.5    22     3.6   728.1    0.00 
 144   22:50   0.00   33.3    86    3.6    29     5.4   728.1    0.00 
 144   23:00   0.00   33.3    87    3.6    24     5.4   728.2    0.00 
 144   23:10   0.00   33.4    87    3.8    36     5.4   728.1    0.00 
 144   23:20   0.00   34.0    88    3.1     0     6.0   728.0    0.00 
 144   23:30   0.00   34.0    88    2.4    24     4.2   727.9    0.00 
 144   23:40   0.00   34.1    88    3.2    19     4.8   727.9    0.00 
 144   23:50   0.00   34.1    88    3.0    35     4.2   727.9    0.00 
 145    0:00   0.00   34.1    88    0.8   294     3.6   727.9    0.00 
 145    0:10   0.00   33.9    88    2.3   352     4.2   727.8    0.00 
 145    0:20   0.00   33.8    89    3.9     2     6.6   727.8    0.00 
 145    0:30   0.00   34.2    89    4.0    10     6.6   727.8    0.00 
 145    0:40   0.00   34.3    89    1.9    41     4.8   727.8    0.00 
 145    0:50   0.00   34.5    89    1.5    99     3.6   727.8    0.00 
 145    1:00   0.00   34.2    89    1.7    71     3.0   727.8    0.00 
 145    1:10   0.00   34.1    89    1.0    39     3.0   727.8    0.00 
 145    1:20   0.00   33.9    90    2.8    41     4.2   727.8    0.00 
 145    1:30   0.00   34.3    90    2.0    39     3.6   727.8    0.00 
 145    1:40   0.00   34.6    90    1.4    10     4.2   727.8    0.00 
 145    1:50   0.00   35.0    90    0.7    51     2.4   727.8    0.00 
 145    2:00   0.00   35.3    90    0.1    48     1.8   727.8    0.00 
 145    2:10   0.00   35.6    90    0.3   323     2.4   727.9    0.00 
 145    2:20   0.00   35.6    89    2.6    29     4.2   727.7    0.00 

Return to Valle Toledo, Valles Caldera graphs page.


Western Regional Climate Center,wrcc@dri.edu